createdAt,value
2016-12-23T00:00:07.588Z,-0.21
2016-12-23T00:01:07.252Z,-0.15
2016-12-23T00:02:08.645Z,-0.18
2016-12-23T00:03:07.276Z,-0.22
2016-12-23T00:04:08.036Z,-0.33
2016-12-23T00:05:07.599Z,-0.47
2016-12-23T00:06:07.131Z,-0.58
2016-12-23T00:07:07.657Z,-0.47
2016-12-23T00:08:07.433Z,-0.44
2016-12-23T00:09:08.132Z,-0.51
2016-12-23T00:10:07.702Z,-0.44
2016-12-23T00:11:07.232Z,-0.41
2016-12-23T00:12:08.475Z,-0.56
2016-12-23T00:13:08.127Z,-0.39
2016-12-23T00:14:07.596Z,-0.32
2016-12-23T00:15:07.112Z,-0.52
2016-12-23T00:16:07.890Z,-0.40
2016-12-23T00:17:08.010Z,-0.49
2016-12-23T00:18:07.754Z,-0.46
2016-12-23T00:19:07.422Z,-0.36
2016-12-23T00:20:08.895Z,-0.57
2016-12-23T00:21:07.407Z,-0.60
2016-12-23T00:22:07.942Z,-0.49
2016-12-23T00:23:07.715Z,-0.57
2016-12-23T00:24:07.288Z,-0.42
2016-12-23T00:25:08.155Z,-0.34
2016-12-23T00:26:07.956Z,-0.47
2016-12-23T00:27:08.883Z,-0.50
2016-12-23T00:28:07.394Z,-0.56
2016-12-23T00:29:08.072Z,-0.54
2016-12-23T00:30:07.832Z,-0.39
2016-12-23T00:31:07.395Z,-0.24
2016-12-23T00:32:07.883Z,-0.24
2016-12-23T00:33:07.404Z,-0.19
2016-12-23T00:34:07.950Z,-0.36
2016-12-23T00:35:07.905Z,-0.20
2016-12-23T00:36:07.502Z,-0.28
2016-12-23T00:37:08.160Z,-0.50
2016-12-23T00:38:07.400Z,-0.45
2016-12-23T00:39:07.920Z,-0.24
2016-12-23T00:40:07.444Z,-0.17
2016-12-23T00:41:08.023Z,-0.34
2016-12-23T00:42:07.491Z,-0.30
2016-12-23T00:43:07.979Z,-0.24
2016-12-23T00:44:07.465Z,-0.34
2016-12-23T00:45:07.962Z,-0.32
2016-12-23T00:46:07.461Z,-0.70
2016-12-23T00:47:08.115Z,-0.45
2016-12-23T00:48:07.941Z,-0.46
2016-12-23T00:49:07.469Z,-0.52
2016-12-23T00:50:07.999Z,-0.57
2016-12-23T00:51:07.535Z,-0.38
2016-12-23T00:52:08.046Z,-0.33
2016-12-23T00:53:07.530Z,-0.27
2016-12-23T00:54:08.038Z,-0.16
2016-12-23T00:55:07.558Z,-0.18
2016-12-23T00:56:08.093Z,-0.05
2016-12-23T00:57:07.724Z,-0.03
2016-12-23T00:58:07.252Z,-0.23
2016-12-23T00:59:07.361Z,-0.25
2016-12-23T01:00:07.947Z,-0.29
2016-12-23T01:01:07.409Z,-0.16
2016-12-23T01:02:07.719Z,-0.08
2016-12-23T01:03:07.190Z,-0.12
2016-12-23T01:04:07.813Z,-0.18
2016-12-23T01:05:07.634Z,-0.06
2016-12-23T01:06:07.110Z,-0.16
2016-12-23T01:07:07.670Z,-0.20
2016-12-23T01:08:07.192Z,-0.16
2016-12-23T01:09:07.682Z,-0.23
2016-12-23T01:10:07.473Z,-0.35
2016-12-23T01:11:07.974Z,-0.26
2016-12-23T01:12:07.474Z,-0.37
2016-12-23T01:13:08.095Z,-0.36
2016-12-23T01:14:07.786Z,-0.33
2016-12-23T01:15:07.625Z,-0.28
2016-12-23T01:16:07.045Z,-0.22
2016-12-23T01:17:07.799Z,-0.30
2016-12-23T01:18:07.304Z,-0.05
2016-12-23T01:19:07.902Z,0.04
2016-12-23T01:20:07.413Z,0.09
2016-12-23T01:21:08.122Z,-0.06
2016-12-23T01:22:07.630Z,0.09
2016-12-23T01:23:07.141Z,-0.17
2016-12-23T01:24:07.670Z,-0.02
2016-12-23T01:25:07.136Z,-0.32
2016-12-23T01:26:07.565Z,-0.27
2016-12-23T01:27:08.095Z,-0.06
2016-12-23T01:28:08.223Z,-0.42
2016-12-23T01:29:08.069Z,-0.26
2016-12-23T01:30:07.648Z,-0.25
2016-12-23T01:31:07.374Z,-0.24
2016-12-23T01:32:07.913Z,-0.16
2016-12-23T01:33:07.433Z,-0.12
2016-12-23T01:34:07.497Z,-0.02
2016-12-23T01:35:08.280Z,0.06
2016-12-23T01:36:08.077Z,-0.17
2016-12-23T01:37:07.536Z,-0.21
2016-12-23T01:38:08.246Z,-0.03
2016-12-23T01:39:07.758Z,-0.18
2016-12-23T01:40:07.752Z,-0.09
2016-12-23T01:41:07.557Z,-0.02
2016-12-23T01:42:08.054Z,0.10
2016-12-23T01:43:07.771Z,0.16
2016-12-23T01:44:07.457Z,0.01
2016-12-23T01:45:08.063Z,0.02
2016-12-23T01:46:07.610Z,-0.18
2016-12-23T01:47:07.156Z,-0.01
2016-12-23T01:48:07.614Z,0.23
2016-12-23T01:49:07.202Z,0.05
2016-12-23T01:50:07.654Z,0.23
2016-12-23T01:51:07.318Z,0.19
2016-12-23T01:52:07.813Z,0.35
2016-12-23T01:53:07.854Z,0.33
2016-12-23T01:54:08.297Z,0.12
2016-12-23T01:55:08.279Z,0.20
2016-12-23T01:56:07.862Z,0.33
2016-12-23T01:57:07.377Z,0.33
2016-12-23T01:58:07.818Z,0.49
2016-12-23T01:59:07.344Z,0.41
2016-12-23T02:00:07.598Z,0.50
2016-12-23T02:01:07.846Z,0.41
2016-12-23T02:02:07.575Z,0.52
2016-12-23T02:03:08.027Z,0.40
2016-12-23T02:04:07.477Z,0.48
2016-12-23T02:05:07.936Z,0.33
2016-12-23T02:06:07.490Z,0.24
2016-12-23T02:07:08.213Z,0.25
2016-12-23T02:08:07.725Z,0.19
2016-12-23T02:09:07.263Z,0.33
2016-12-23T02:10:07.456Z,0.45
2016-12-23T02:11:08.000Z,0.56
2016-12-23T02:12:07.614Z,0.55
2016-12-23T02:13:07.161Z,0.54
2016-12-23T02:14:07.676Z,0.45
2016-12-23T02:15:07.634Z,0.32
2016-12-23T02:16:07.449Z,0.36
2016-12-23T02:17:08.104Z,0.19
2016-12-23T02:18:07.946Z,0.31
2016-12-23T02:19:07.431Z,0.33
2016-12-23T02:20:08.264Z,0.33
2016-12-23T02:21:07.935Z,0.28
2016-12-23T02:22:07.683Z,0.28
2016-12-23T02:23:07.553Z,0.39
2016-12-23T02:24:08.243Z,0.40
2016-12-23T02:25:07.803Z,0.36
2016-12-23T02:26:07.344Z,0.45
2016-12-23T02:27:07.679Z,0.40
2016-12-23T02:28:07.454Z,0.49
2016-12-23T02:29:07.986Z,0.25
2016-12-23T02:30:07.893Z,0.11
2016-12-23T02:31:07.394Z,0.23
2016-12-23T02:32:07.764Z,0.13
2016-12-23T02:33:07.476Z,0.16
2016-12-23T02:34:07.963Z,0.07
2016-12-23T02:35:07.435Z,0.09
2016-12-23T02:36:07.981Z,0.12
2016-12-23T02:37:07.439Z,0.13
2016-12-23T02:38:07.960Z,0.15
2016-12-23T02:39:07.478Z,0.28
2016-12-23T02:40:08.154Z,0.22
2016-12-23T02:41:07.969Z,0.35
2016-12-23T02:42:07.434Z,0.36
2016-12-23T02:43:07.884Z,0.36
2016-12-23T02:44:07.332Z,0.37
2016-12-23T02:45:07.857Z,0.26
2016-12-23T02:46:07.516Z,0.18
2016-12-23T02:47:07.993Z,0.23
2016-12-23T02:48:07.524Z,0.31
2016-12-23T02:49:08.007Z,0.26
2016-12-23T02:50:07.506Z,0.36
2016-12-23T02:51:08.004Z,0.28
2016-12-23T02:52:07.753Z,0.36
2016-12-23T02:53:07.282Z,0.27
2016-12-23T02:54:07.323Z,0.25
2016-12-23T02:55:08.022Z,0.39
2016-12-23T02:56:07.490Z,0.32
2016-12-23T02:57:07.967Z,0.32
2016-12-23T02:58:07.564Z,0.49
2016-12-23T02:59:08.013Z,0.66
2016-12-23T03:00:07.217Z,0.74
2016-12-23T03:01:07.741Z,0.59
2016-12-23T03:02:07.501Z,0.85
2016-12-23T03:03:08.592Z,0.85
2016-12-23T03:04:07.092Z,0.76
2016-12-23T03:05:07.552Z,0.71
2016-12-23T03:06:08.088Z,0.77
2016-12-23T03:07:07.583Z,0.77
2016-12-23T03:08:08.244Z,0.83
2016-12-23T03:09:07.772Z,0.66
2016-12-23T03:10:07.244Z,0.72
2016-12-23T03:11:07.783Z,0.73
2016-12-23T03:12:07.877Z,0.81
2016-12-23T03:13:07.359Z,0.98
2016-12-23T03:14:08.027Z,1.05
2016-12-23T03:15:08.260Z,0.95
2016-12-23T03:16:07.940Z,0.85
2016-12-23T03:17:07.684Z,0.80
2016-12-23T03:18:07.267Z,0.97
2016-12-23T03:19:07.726Z,1.04
2016-12-23T03:20:07.225Z,1.12
2016-12-23T03:21:07.735Z,1.13
2016-12-23T03:22:07.398Z,1.00
2016-12-23T03:23:07.936Z,0.80
2016-12-23T03:24:07.606Z,0.72
2016-12-23T03:25:07.239Z,0.85
2016-12-23T03:26:07.972Z,0.75
2016-12-23T03:27:07.476Z,0.93
2016-12-23T03:28:08.245Z,0.73
2016-12-23T03:29:07.911Z,0.91
2016-12-23T03:30:07.500Z,0.83
2016-12-23T03:31:08.133Z,1.00
2016-12-23T03:32:07.617Z,1.05
2016-12-23T03:33:07.373Z,1.20
2016-12-23T03:34:07.798Z,1.24
2016-12-23T03:35:07.531Z,1.07
2016-12-23T03:36:08.307Z,1.14
2016-12-23T03:37:07.859Z,1.08
2016-12-23T03:38:07.697Z,1.21
2016-12-23T03:39:07.230Z,1.25
2016-12-23T03:40:07.985Z,1.33
2016-12-23T03:41:08.177Z,1.38
2016-12-23T03:42:07.768Z,1.18
2016-12-23T03:43:07.248Z,1.38
2016-12-23T03:44:07.714Z,1.33
2016-12-23T03:45:07.299Z,1.45
2016-12-23T03:46:07.939Z,1.54
2016-12-23T03:47:07.781Z,1.51
2016-12-23T03:48:07.243Z,1.21
2016-12-23T03:49:07.710Z,1.16
2016-12-23T03:50:07.486Z,1.17
2016-12-23T03:51:08.034Z,1.27
2016-12-23T03:52:07.310Z,1.32
2016-12-23T03:53:08.130Z,1.08
2016-12-23T03:54:07.577Z,1.24
2016-12-23T03:55:07.453Z,1.27
2016-12-23T03:56:07.973Z,1.33
2016-12-23T03:57:07.923Z,1.50
2016-12-23T03:58:07.469Z,1.53
2016-12-23T03:59:07.984Z,1.48
2016-12-23T04:00:08.037Z,1.39
2016-12-23T04:01:07.606Z,1.45
2016-12-23T04:02:07.141Z,1.35
2016-12-23T04:03:07.631Z,1.28
2016-12-23T04:04:07.338Z,1.41
2016-12-23T04:05:07.841Z,1.30
2016-12-23T04:06:07.411Z,1.39
2016-12-23T04:07:07.919Z,1.50
2016-12-23T04:08:07.440Z,1.51
2016-12-23T04:09:08.069Z,1.43
2016-12-23T04:10:07.771Z,1.40
2016-12-23T04:11:08.204Z,1.56
2016-12-23T04:12:07.595Z,1.60
2016-12-23T04:13:07.357Z,1.69
2016-12-23T04:14:07.876Z,1.70
2016-12-23T04:15:07.395Z,1.70
2016-12-23T04:16:08.111Z,1.76
2016-12-23T04:17:08.012Z,1.71
2016-12-23T04:18:07.668Z,1.76
2016-12-23T04:19:07.430Z,1.60
2016-12-23T04:20:07.900Z,1.53
2016-12-23T04:21:07.339Z,1.52
2016-12-23T04:22:07.901Z,1.56
2016-12-23T04:23:07.567Z,1.59
2016-12-23T04:24:08.422Z,1.69
2016-12-23T04:25:07.868Z,1.71
2016-12-23T04:26:07.403Z,1.67
2016-12-23T04:27:08.041Z,1.75
2016-12-23T04:28:07.463Z,1.66
2016-12-23T04:29:08.014Z,1.56
2016-12-23T04:30:07.502Z,1.58
2016-12-23T04:31:08.004Z,1.66
2016-12-23T04:32:07.479Z,1.66
2016-12-23T04:33:08.012Z,1.57
2016-12-23T04:34:07.514Z,1.79
2016-12-23T04:35:08.011Z,1.98
2016-12-23T04:36:07.806Z,1.92
2016-12-23T04:37:07.585Z,1.80
2016-12-23T04:38:07.088Z,1.77
2016-12-23T04:39:07.542Z,1.90
2016-12-23T04:40:08.083Z,1.97
2016-12-23T04:41:07.387Z,2.00
2016-12-23T04:42:08.240Z,1.97
2016-12-23T04:43:07.807Z,2.08
2016-12-23T04:44:07.372Z,1.95
2016-12-23T04:45:07.916Z,2.01
2016-12-23T04:46:07.382Z,1.93
2016-12-23T04:47:08.112Z,1.96
2016-12-23T04:48:07.715Z,2.03
2016-12-23T04:49:07.456Z,1.95
2016-12-23T04:50:07.770Z,1.97
2016-12-23T04:51:07.338Z,1.82
2016-12-23T04:52:07.863Z,2.00
2016-12-23T04:53:07.467Z,1.76
2016-12-23T04:54:08.177Z,1.76
2016-12-23T04:55:07.662Z,1.73
2016-12-23T04:56:07.442Z,1.86
2016-12-23T04:57:08.274Z,1.79
2016-12-23T04:58:07.812Z,1.80
2016-12-23T04:59:07.477Z,1.96
2016-12-23T05:00:07.999Z,1.74
2016-12-23T05:01:07.491Z,1.91
2016-12-23T05:02:07.936Z,1.88
2016-12-23T05:03:07.432Z,1.94
2016-12-23T05:04:07.412Z,2.02
2016-12-23T05:05:07.937Z,2.10
2016-12-23T05:06:07.421Z,2.02
2016-12-23T05:07:07.981Z,2.01
2016-12-23T05:08:07.603Z,2.18
2016-12-23T05:09:07.127Z,2.20
2016-12-23T05:10:07.244Z,2.15
2016-12-23T05:11:07.617Z,2.21
2016-12-23T05:12:07.159Z,2.25
2016-12-23T05:13:07.983Z,2.29
2016-12-23T05:14:07.286Z,2.13
2016-12-23T05:15:08.037Z,2.14
2016-12-23T05:16:07.494Z,2.24
2016-12-23T05:17:08.127Z,2.27
2016-12-23T05:18:07.643Z,2.26
2016-12-23T05:19:07.106Z,2.37
2016-12-23T05:20:07.742Z,2.35
2016-12-23T05:21:07.208Z,2.30
2016-12-23T05:22:08.308Z,2.19
2016-12-23T05:23:07.653Z,2.21
2016-12-23T05:24:07.776Z,2.04
2016-12-23T05:25:09.775Z,2.02
2016-12-23T05:26:07.364Z,2.08
2016-12-23T05:27:07.938Z,2.13
2016-12-23T05:28:07.534Z,2.07
2016-12-23T05:29:07.996Z,2.15
2016-12-23T05:30:07.490Z,2.20
2016-12-23T05:31:08.050Z,2.15
2016-12-23T05:32:07.937Z,2.31
2016-12-23T05:33:07.576Z,2.17
2016-12-23T05:34:08.050Z,2.27
2016-12-23T05:35:07.647Z,2.29
2016-12-23T05:36:07.099Z,2.20
2016-12-23T05:37:07.661Z,2.14
2016-12-23T05:38:07.203Z,2.27
2016-12-23T05:39:07.733Z,2.35
2016-12-23T05:40:07.538Z,2.26
2016-12-23T05:41:08.326Z,2.34
2016-12-23T05:42:07.824Z,2.38
2016-12-23T05:43:07.826Z,2.38
2016-12-23T05:44:07.527Z,2.46
2016-12-23T05:45:08.098Z,2.37
2016-12-23T05:46:07.605Z,2.32
2016-12-23T05:47:07.116Z,2.29
2016-12-23T05:48:07.684Z,2.09
2016-12-23T05:49:07.171Z,2.15
2016-12-23T05:50:07.631Z,2.24
2016-12-23T05:51:07.251Z,2.24
2016-12-23T05:52:07.888Z,2.33
2016-12-23T05:53:07.709Z,2.27
2016-12-23T05:54:07.532Z,2.25
2016-12-23T05:55:08.412Z,2.42
2016-12-23T05:56:08.189Z,2.35
2016-12-23T05:57:08.028Z,2.54
2016-12-23T05:58:07.718Z,2.28
2016-12-23T05:59:07.195Z,2.13
2016-12-23T06:00:07.704Z,2.26
2016-12-23T06:01:07.192Z,2.33
2016-12-23T06:02:07.721Z,2.35
2016-12-23T06:03:07.277Z,2.32
2016-12-23T06:04:08.174Z,2.48
2016-12-23T06:05:07.895Z,2.50
2016-12-23T06:06:07.348Z,2.52
2016-12-23T06:07:07.847Z,2.51
2016-12-23T06:08:07.358Z,2.55
2016-12-23T06:09:07.573Z,2.59
2016-12-23T06:10:08.249Z,2.61
2016-12-23T06:11:07.772Z,2.63
2016-12-23T06:12:07.217Z,2.52
2016-12-23T06:13:07.732Z,2.59
2016-12-23T06:14:07.496Z,2.49
2016-12-23T06:15:07.998Z,2.55
2016-12-23T06:16:07.488Z,2.67
2016-12-23T06:17:08.128Z,2.60
2016-12-23T06:18:07.615Z,2.56
2016-12-23T06:19:07.565Z,2.53
2016-12-23T06:20:07.247Z,2.43
2016-12-23T06:21:07.740Z,2.39
2016-12-23T06:22:07.251Z,2.59
2016-12-23T06:23:07.916Z,2.69
2016-12-23T06:24:07.428Z,2.56
2016-12-23T06:25:07.848Z,2.49
2016-12-23T06:26:07.515Z,2.47
2016-12-23T06:27:08.269Z,2.60
2016-12-23T06:28:07.880Z,2.64
2016-12-23T06:29:07.722Z,2.67
2016-12-23T06:30:07.625Z,2.71
2016-12-23T06:31:07.452Z,2.82
2016-12-23T06:32:08.216Z,2.81
2016-12-23T06:33:07.777Z,2.86
2016-12-23T06:34:07.281Z,2.83
2016-12-23T06:35:07.986Z,2.60
2016-12-23T06:36:07.453Z,2.69
2016-12-23T06:37:07.976Z,2.73
2016-12-23T06:38:07.497Z,2.81
2016-12-23T06:39:07.993Z,2.84
2016-12-23T06:40:07.477Z,2.85
2016-12-23T06:41:07.970Z,2.82
2016-12-23T06:42:07.477Z,2.68
2016-12-23T06:43:08.414Z,2.80
2016-12-23T06:44:07.926Z,2.77
2016-12-23T06:45:07.713Z,2.82
2016-12-23T06:46:07.581Z,2.77
2016-12-23T06:47:07.113Z,2.63
2016-12-23T06:48:07.672Z,2.67
2016-12-23T06:49:07.612Z,2.55
2016-12-23T06:50:07.408Z,2.45
2016-12-23T06:51:07.852Z,2.65
2016-12-23T06:52:07.463Z,2.62
2016-12-23T06:53:08.085Z,2.75
2016-12-23T06:54:07.596Z,2.67
2016-12-23T06:55:07.124Z,2.70
2016-12-23T06:56:08.014Z,2.70
2016-12-23T06:57:07.468Z,2.68
2016-12-23T06:58:07.946Z,2.79
2016-12-23T06:59:08.067Z,2.85
2016-12-23T07:00:07.807Z,2.89
2016-12-23T07:01:07.559Z,2.84
2016-12-23T07:02:08.286Z,2.89
2016-12-23T07:03:07.889Z,2.82
2016-12-23T07:04:07.619Z,2.94
2016-12-23T07:05:07.534Z,3.00
2016-12-23T07:06:07.629Z,2.97
2016-12-23T07:07:07.164Z,3.01
2016-12-23T07:08:07.641Z,2.99
2016-12-23T07:09:07.236Z,2.86
2016-12-23T07:10:07.759Z,2.79
2016-12-23T07:11:07.413Z,2.79
2016-12-23T07:12:08.089Z,2.81
2016-12-23T07:13:07.604Z,2.86
2016-12-23T07:14:07.144Z,2.76
2016-12-23T07:15:07.796Z,2.77
2016-12-23T07:16:07.675Z,2.67
2016-12-23T07:17:07.819Z,2.83
2016-12-23T07:18:07.750Z,2.81
2016-12-23T07:19:07.377Z,2.86
2016-12-23T07:20:07.889Z,2.87
2016-12-23T07:21:07.339Z,2.92
2016-12-23T07:22:08.028Z,2.94
2016-12-23T07:23:07.879Z,2.97
2016-12-23T07:24:07.405Z,3.03
2016-12-23T07:25:07.931Z,2.94
2016-12-23T07:26:07.421Z,2.95
2016-12-23T07:27:07.987Z,2.76
2016-12-23T07:28:07.689Z,2.72
2016-12-23T07:29:07.187Z,2.79
2016-12-23T07:30:07.707Z,2.81
2016-12-23T07:31:07.205Z,2.83
2016-12-23T07:32:08.138Z,2.82
2016-12-23T07:33:07.789Z,3.06
2016-12-23T07:34:07.617Z,3.02
2016-12-23T07:35:07.136Z,3.19
2016-12-23T07:36:08.077Z,3.20
2016-12-23T07:37:24.566Z,3.20
2016-12-23T07:38:07.139Z,3.25
2016-12-23T07:39:07.801Z,3.29
2016-12-23T07:40:08.246Z,3.30
2016-12-23T07:41:07.789Z,3.22
2016-12-23T07:42:07.498Z,3.16
2016-12-23T07:43:08.181Z,3.11
2016-12-23T07:44:07.748Z,3.07
2016-12-23T07:45:07.632Z,3.12
2016-12-23T07:46:07.284Z,3.11
2016-12-23T07:47:07.528Z,3.11
2016-12-23T07:48:07.367Z,3.11
2016-12-23T07:49:08.192Z,3.10
2016-12-23T07:50:07.723Z,3.03
2016-12-23T07:51:07.323Z,3.09
2016-12-23T07:52:07.989Z,3.22
2016-12-23T07:53:07.541Z,3.25
2016-12-23T07:54:07.729Z,3.30
2016-12-23T07:55:07.289Z,3.42
2016-12-23T07:56:07.923Z,3.27
2016-12-23T07:57:07.880Z,3.48
2016-12-23T07:58:07.708Z,3.34
2016-12-23T07:59:07.180Z,3.27
2016-12-23T08:00:07.999Z,3.44
2016-12-23T08:01:07.477Z,3.50
2016-12-23T08:02:07.781Z,3.37
2016-12-23T08:03:07.353Z,3.38
2016-12-23T08:04:07.941Z,3.36
2016-12-23T08:05:07.186Z,3.50
2016-12-23T08:06:07.647Z,3.53
2016-12-23T08:07:07.283Z,3.55
2016-12-23T08:08:08.122Z,3.58
2016-12-23T08:09:07.696Z,3.55
2016-12-23T08:10:16.195Z,3.52
2016-12-23T08:11:08.015Z,3.43
2016-12-23T08:12:07.621Z,3.46
2016-12-23T08:13:07.201Z,3.37
2016-12-23T08:14:07.630Z,3.45
2016-12-23T08:15:07.866Z,3.50
2016-12-23T08:16:07.338Z,3.52
2016-12-23T08:17:07.954Z,3.63
2016-12-23T08:18:07.657Z,3.68
2016-12-23T08:19:07.107Z,3.72
2016-12-23T08:20:07.570Z,3.77
2016-12-23T08:21:08.211Z,3.69
2016-12-23T08:22:07.664Z,3.80
2016-12-23T08:23:07.150Z,3.84
2016-12-23T08:24:07.987Z,3.72
2016-12-23T08:25:07.480Z,3.82
2016-12-23T08:26:08.299Z,3.92
2016-12-23T08:27:07.898Z,3.83
2016-12-23T08:28:07.339Z,3.72
2016-12-23T08:29:07.952Z,3.69
2016-12-23T08:30:07.578Z,3.75
2016-12-23T08:31:07.350Z,3.77
2016-12-23T08:32:08.187Z,3.66
2016-12-23T08:33:07.805Z,3.86
2016-12-23T08:34:07.325Z,3.85
2016-12-23T08:35:07.459Z,3.91
2016-12-23T08:36:07.993Z,3.92
2016-12-23T08:37:07.641Z,3.99
2016-12-23T08:38:07.176Z,4.01
2016-12-23T08:39:07.614Z,3.93
2016-12-23T08:40:07.183Z,3.98
2016-12-23T08:41:07.586Z,4.07
2016-12-23T08:42:07.257Z,4.00
2016-12-23T08:43:07.972Z,3.90
2016-12-23T08:44:07.477Z,3.87
2016-12-23T08:45:07.976Z,3.89
2016-12-23T08:46:07.476Z,3.85
2016-12-23T08:47:07.916Z,3.85
2016-12-23T08:48:07.527Z,3.91
2016-12-23T08:49:07.692Z,3.99
2016-12-23T08:50:07.309Z,3.98
2016-12-23T08:51:07.759Z,4.13
2016-12-23T08:52:07.836Z,4.21
2016-12-23T08:53:07.467Z,4.27
2016-12-23T08:54:07.981Z,4.19
2016-12-23T08:55:07.993Z,4.32
2016-12-23T08:56:31.048Z,4.34
2016-12-23T08:57:07.631Z,4.35
2016-12-23T08:58:07.375Z,4.26
2016-12-23T08:59:07.737Z,4.20
2016-12-23T09:00:08.464Z,4.25
2016-12-23T09:01:07.596Z,4.15
2016-12-23T09:02:07.359Z,4.22
2016-12-23T09:03:08.689Z,4.19
2016-12-23T09:04:08.537Z,4.24
2016-12-23T09:05:08.603Z,4.20
2016-12-23T09:06:08.995Z,4.28
2016-12-23T09:07:07.440Z,4.34
2016-12-23T09:08:08.197Z,4.28
2016-12-23T09:09:07.693Z,4.25
2016-12-23T09:10:08.586Z,4.18
2016-12-23T09:11:08.552Z,4.30
2016-12-23T09:12:08.915Z,4.26
2016-12-23T09:13:08.830Z,4.34
2016-12-23T09:14:09.840Z,4.43
2016-12-23T09:15:07.923Z,4.46
2016-12-23T09:16:07.529Z,4.39
2016-12-23T09:17:08.355Z,4.44
2016-12-23T09:18:07.926Z,4.33
2016-12-23T09:19:07.702Z,4.46
2016-12-23T09:20:07.277Z,4.44
2016-12-23T09:21:08.179Z,4.50
2016-12-23T09:22:07.888Z,4.43
2016-12-23T09:23:07.536Z,4.50
2016-12-23T09:24:07.929Z,4.51
2016-12-23T09:25:07.487Z,4.49
2016-12-23T09:26:08.241Z,4.39
2016-12-23T09:27:07.811Z,4.41
2016-12-23T09:28:07.683Z,4.41
2016-12-23T09:29:07.239Z,4.38
2016-12-23T09:30:07.815Z,4.33
2016-12-23T09:31:07.277Z,4.34
2016-12-23T09:32:08.039Z,4.35
2016-12-23T09:33:07.521Z,4.44
2016-12-23T09:34:08.229Z,4.18
2016-12-23T09:35:08.085Z,4.31
2016-12-23T09:36:07.944Z,4.27
2016-12-23T09:37:07.437Z,4.36
2016-12-23T09:38:07.967Z,4.33
2016-12-23T09:39:07.506Z,4.39
2016-12-23T09:40:08.068Z,4.33
2016-12-23T09:41:18.341Z,4.41
2016-12-23T09:42:08.145Z,4.32
2016-12-23T09:43:07.690Z,4.31
2016-12-23T09:44:07.237Z,4.33
2016-12-23T09:45:07.875Z,4.31
2016-12-23T09:46:07.484Z,4.46
2016-12-23T09:47:07.823Z,4.45
2016-12-23T09:48:07.513Z,4.45
2016-12-23T09:49:07.651Z,4.27
2016-12-23T09:50:07.688Z,4.25
2016-12-23T09:51:07.284Z,4.27
2016-12-23T09:52:07.876Z,4.37
2016-12-23T09:53:07.601Z,4.36
2016-12-23T09:54:07.047Z,4.50
2016-12-23T09:55:07.717Z,4.42
2016-12-23T09:56:07.739Z,4.49
2016-12-23T09:57:07.583Z,4.50
2016-12-23T09:58:08.111Z,4.60
2016-12-23T09:59:07.608Z,4.62
2016-12-23T10:00:07.083Z,4.58
2016-12-23T10:01:07.601Z,4.69
2016-12-23T10:02:07.728Z,4.61
2016-12-23T10:03:07.202Z,4.62
2016-12-23T10:04:07.911Z,4.60
2016-12-23T10:05:07.533Z,4.65
2016-12-23T10:06:08.301Z,4.71
2016-12-23T10:07:08.163Z,4.64
2016-12-23T10:08:07.620Z,4.59
2016-12-23T10:09:07.669Z,4.63
2016-12-23T10:10:07.232Z,4.70
2016-12-23T10:11:07.848Z,4.62
2016-12-23T10:12:07.490Z,4.68
2016-12-23T10:13:08.021Z,4.71
2016-12-23T10:14:07.814Z,4.94
2016-12-23T10:15:07.483Z,4.82
2016-12-23T10:16:08.301Z,4.84
2016-12-23T10:17:08.322Z,4.85
2016-12-23T10:18:08.090Z,4.88
2016-12-23T10:19:07.626Z,4.91
2016-12-23T10:20:07.283Z,4.88
2016-12-23T10:21:07.889Z,4.86
2016-12-23T10:22:07.447Z,4.86
2016-12-23T10:23:08.318Z,4.68
2016-12-23T10:24:07.972Z,4.77
2016-12-23T10:25:07.755Z,4.88
2016-12-23T10:26:07.490Z,4.91
2016-12-23T10:27:07.989Z,4.92
2016-12-23T10:28:07.421Z,4.85
2016-12-23T10:29:07.949Z,4.89
2016-12-23T10:30:07.681Z,4.87
2016-12-23T10:31:07.353Z,4.94
2016-12-23T10:32:07.899Z,5.05
2016-12-23T10:33:07.423Z,5.03
2016-12-23T10:34:08.008Z,4.98
2016-12-23T10:35:07.702Z,4.96
2016-12-23T10:36:07.371Z,5.08
2016-12-23T10:37:14.503Z,5.00
2016-12-23T10:38:07.578Z,4.90
2016-12-23T10:39:08.072Z,5.01
2016-12-23T10:40:07.569Z,5.00
2016-12-23T10:41:07.143Z,5.14
2016-12-23T10:42:07.715Z,5.14
2016-12-23T10:43:07.347Z,5.01
2016-12-23T10:44:07.990Z,5.20
2016-12-23T10:45:07.507Z,5.26
2016-12-23T10:46:08.055Z,5.30
2016-12-23T10:47:07.112Z,5.39
2016-12-23T10:48:07.637Z,5.35
2016-12-23T10:49:07.103Z,5.27
2016-12-23T10:50:07.659Z,5.28
2016-12-23T10:51:07.148Z,5.45
2016-12-23T10:52:07.643Z,5.41
2016-12-23T10:53:07.084Z,5.29
2016-12-23T10:54:08.014Z,5.09
2016-12-23T10:55:07.129Z,5.17
2016-12-23T10:56:07.688Z,5.19
2016-12-23T10:57:07.378Z,5.25
2016-12-23T10:58:07.890Z,5.23
2016-12-23T10:59:07.376Z,5.18
2016-12-23T11:00:08.200Z,5.30
2016-12-23T11:01:08.008Z,5.40
2016-12-23T11:02:07.877Z,5.33
2016-12-23T11:03:07.630Z,5.25
2016-12-23T11:04:07.172Z,5.39
2016-12-23T11:05:07.738Z,5.38
2016-12-23T11:06:07.547Z,5.45
2016-12-23T11:07:08.081Z,5.43
2016-12-23T11:08:07.533Z,5.37
2016-12-23T11:09:07.968Z,5.33
2016-12-23T11:10:07.742Z,5.50
2016-12-23T11:11:13.479Z,5.48
2016-12-23T11:12:07.454Z,5.50
2016-12-23T11:13:08.174Z,5.50
2016-12-23T11:14:08.619Z,5.55
2016-12-23T11:15:07.490Z,5.60
2016-12-23T11:16:08.067Z,5.61
2016-12-23T11:17:07.637Z,5.64
2016-12-23T11:18:07.100Z,5.77
2016-12-23T11:19:07.673Z,5.68
2016-12-23T11:20:07.286Z,5.63
2016-12-23T11:21:07.758Z,5.65
2016-12-23T11:22:07.233Z,5.61
2016-12-23T11:23:07.692Z,5.59
2016-12-23T11:24:07.815Z,5.74
2016-12-23T11:25:07.303Z,5.68
2016-12-23T11:26:07.901Z,5.63
2016-12-23T11:27:07.633Z,5.60
2016-12-23T11:28:07.320Z,5.73
2016-12-23T11:29:07.851Z,5.97
2016-12-23T11:30:07.602Z,6.00
2016-12-23T11:31:07.100Z,5.97
2016-12-23T11:32:07.622Z,6.07
2016-12-23T11:33:07.413Z,6.11
2016-12-23T11:34:07.987Z,6.00
2016-12-23T11:35:07.904Z,6.08
2016-12-23T11:36:07.452Z,6.03
2016-12-23T11:37:08.196Z,5.91
2016-12-23T11:38:07.726Z,5.65
2016-12-23T11:39:08.212Z,5.55
2016-12-23T11:40:07.777Z,5.65
2016-12-23T11:41:07.483Z,5.63
2016-12-23T11:42:07.504Z,5.65
2016-12-23T11:43:07.295Z,5.65
2016-12-23T11:44:07.618Z,5.70
2016-12-23T11:45:07.421Z,5.67
2016-12-23T11:46:07.919Z,5.81
2016-12-23T11:47:07.411Z,5.89
2016-12-23T11:48:07.935Z,5.88
2016-12-23T11:49:07.422Z,6.04
2016-12-23T11:50:08.361Z,5.94
2016-12-23T11:51:07.121Z,5.94
2016-12-23T11:52:07.671Z,5.82
2016-12-23T11:53:07.155Z,5.91
2016-12-23T11:54:07.663Z,5.98
2016-12-23T11:55:07.164Z,5.98
2016-12-23T11:56:07.717Z,5.96
2016-12-23T11:57:07.273Z,5.91
2016-12-23T11:58:07.824Z,5.80
2016-12-23T11:59:07.278Z,5.90
2016-12-23T12:00:07.601Z,6.08
2016-12-23T12:01:07.134Z,6.00
2016-12-23T12:02:07.769Z,5.99
2016-12-23T12:03:07.835Z,5.85
2016-12-23T12:04:07.329Z,5.94
2016-12-23T12:05:09.935Z,5.92
2016-12-23T12:06:07.495Z,5.96
2016-12-23T12:07:08.036Z,5.93
2016-12-23T12:08:07.465Z,5.94
2016-12-23T12:09:08.095Z,5.96
2016-12-23T12:10:07.714Z,5.89
2016-12-23T12:11:08.300Z,5.94
2016-12-23T12:12:07.889Z,5.98
2016-12-23T12:13:07.604Z,5.89
2016-12-23T12:14:07.158Z,5.94
2016-12-23T12:15:07.645Z,5.99
2016-12-23T12:16:07.175Z,5.91
2016-12-23T12:17:07.930Z,5.99
2016-12-23T12:18:07.434Z,5.99
2016-12-23T12:19:07.966Z,6.15
2016-12-23T12:20:07.457Z,5.88
2016-12-23T12:21:08.055Z,6.04
2016-12-23T12:22:07.607Z,5.96
2016-12-23T12:23:07.144Z,5.87
2016-12-23T12:24:07.655Z,5.91
2016-12-23T12:25:07.149Z,5.90
2016-12-23T12:26:07.709Z,5.90
2016-12-23T12:27:08.617Z,5.91
2016-12-23T12:28:07.205Z,5.93
2016-12-23T12:29:07.775Z,5.94
2016-12-23T12:30:07.235Z,5.88
2016-12-23T12:31:07.893Z,5.85
2016-12-23T12:32:07.408Z,5.82
2016-12-23T12:33:07.985Z,5.93
2016-12-23T12:34:07.536Z,5.85
2016-12-23T12:35:08.064Z,5.82
2016-12-23T12:36:07.606Z,5.88
2016-12-23T12:37:07.134Z,5.87
2016-12-23T12:38:07.704Z,5.89
2016-12-23T12:39:07.534Z,5.99
2016-12-23T12:40:08.101Z,6.15
2016-12-23T12:41:07.587Z,6.12
2016-12-23T12:42:08.129Z,6.08
2016-12-23T12:43:07.725Z,5.95
2016-12-23T12:44:07.201Z,5.84
2016-12-23T12:45:07.738Z,5.81
2016-12-23T12:46:07.243Z,5.66
2016-12-23T12:47:07.723Z,5.75
2016-12-23T12:48:07.255Z,5.63
2016-12-23T12:49:07.748Z,5.78
2016-12-23T12:50:07.238Z,5.71
2016-12-23T12:51:07.776Z,5.74
2016-12-23T12:52:07.344Z,5.80
2016-12-23T12:53:07.912Z,5.84
2016-12-23T12:54:07.389Z,5.81
2016-12-23T12:55:07.889Z,5.94
2016-12-23T12:56:07.483Z,5.77
2016-12-23T12:57:08.119Z,5.60
2016-12-23T12:58:07.664Z,5.71
2016-12-23T12:59:07.220Z,5.76
2016-12-23T13:00:07.920Z,5.89
2016-12-23T13:01:07.661Z,5.83
2016-12-23T13:02:07.206Z,5.81
2016-12-23T13:03:07.774Z,5.94
2016-12-23T13:04:07.352Z,5.92
2016-12-23T13:05:07.964Z,5.92
2016-12-23T13:06:07.673Z,5.86
2016-12-23T13:07:07.292Z,5.98
2016-12-23T13:08:07.813Z,5.91
2016-12-23T13:09:07.396Z,5.99
2016-12-23T13:10:07.872Z,5.94
2016-12-23T13:11:07.459Z,6.01
2016-12-23T13:12:08.072Z,5.98
2016-12-23T13:13:07.654Z,6.04
2016-12-23T13:14:07.402Z,5.87
2016-12-23T13:15:07.911Z,5.87